Keystone, CO

2:15 PM MDT on August 30, 2014 (GMT -0600)
Last Chance | Change Station
CLOSE
Current Station
Personal Weather Station
Location: Keystone, CO
Elevation: 9262 ft
Nearby Weather Stations

Elev 9262 ft 39.60 °N, 105.98 °W | Updated 16 seconds ago

Mostly Cloudy
Mostly Cloudy
69.3 °F
Feels Like 69.3 °F
N
5.0
Wind Variable Wind from SW
Gusts 16.0 mph

Today
High -- | Low -- °F
--% Chance of Precip.
Yesterday
High -- | Low -- °F
Precip. -- in
6:30 AM 7:37 PM
Waxing Crescent, 24% visible
Pressure 29.94 in
Visibility 10.0 miles
Clouds Few 7500 ft
Dew Point 40 °F
Humidity 35%
Rainfall 0.01 in
Snow Depth 0 in , 0 in
UV 10 out of 12
Pollen 10.50 out of 12
Air Quality Not available.
Flu Activity Not available.
METAR KLXV 301953Z AUTO 29012KT 10SM FEW075 16/00 A3035 RMK AO2 SLP138 T01610000

More Conditions Fewer Conditions

Pressure 29.94 in
Visibility 10.0 miles
Clouds Few 7500 ft
Dew Point 40 °F
Humidity 35%
Rainfall 0.01 in
Snow Depth 0 in , 0 in
UV 10 out of 12
Pollen 10.50 out of 12
Air Quality Not available.
Flu Activity Not available.
METAR KLXV 301953Z AUTO 29012KT 10SM FEW075 16/00 A3035 RMK AO2 SLP138 T01610000

More Conditions Fewer Conditions

Nowcast | as of 1:35 PM MDT on August 30, 2014

Isolated rain showers and thunderstorms will roll across the north central Colorado high country through mid-afternoon. The heaviest showers will move over the upper Colorado and Fraser River valley and northern Park County. The storms will produce brief rain and small hail.

×

10-Day Weather Forecast

Almanac

Astronomy

Aug. 30, 2014 Rise Set
Actual Time 6:30 AM MDT 7:37 PM MDT
Civil Twilight 6:02 AM MDT 8:05 PM MDT
Nautical Twilight 5:29 AM MDT 8:38 PM MDT
Astronomical Twilight 4:55 AM MDT 9:12 PM MDT
Moon 11:19 AM MDT 10:15 PM MDT
Length of Visible Light 14h 02m
Length of Day
13h 07m
Tomorrow will be 2m 29s shorter.
Waxing Crescent, 24% of the Moon is Illuminated
Today
Waxing Crescent
Sep 2
First Quarter
Sep 8
Full
Sep 15
Last Quarter
Sep 24
New

Today's Extremes

State Highs State Lows

Community

WunderPhotos

Upload Photos

1,748,622 photos uploaded!

WunderBlogs® & News

Nearby

Snow Depth

Station Depth Elevation
Loveland Basin 0 in 11400 ft
Summit Ranch 0 in 9400 ft
Vail Mountain 87 in 10300 ft
Beaver Creek Village 0 in 8500 ft
Mccoy Park 9 in 9480 ft

Earthquake Activity

City Distance Mag. Time & Date
No recent earthquake activity has been reported nearby.
Minimum magnitude displayed is 2.5.

Coastal Water Temperatures

Place Temperature
No Stations Reporting

Nearby Weather Stations